Time;durP1;ratioP1;P1;durP2;ratioP2;P2;SDS_P1;SDS_P2;PMS_P1;PMS_P2;Temp;Humidity;BMP_temperature;BMP_pressure;BME280_temperature;BME280_humidity;BME280_pressure;Samples;Min_cycle;Max_cycle;Signal;HPM_P1;HPM_P2
2023/01/28 08:02:12;;;;;;;;;;;;;;;2.26;62.56;97063.94;4231096;27;10400;-61
2023/01/28 08:04:15;;;;;;;;;;;;;;;2.52;62.12;97066.88;4215115;28;5694;-61
2023/01/28 08:06:17;;;;;;;;;;;;;;;2.74;61.60;97063.19;4214448;28;5693;-61
2023/01/28 08:08:21;;;;;;;;;;;;;;;2.92;61.31;97071.97;4213026;28;5710;-61
2023/01/28 08:10:24;;;;;;;;;;;;;;;3.05;60.78;97070.84;4214419;28;5881;-61
2023/01/28 08:12:27;;;;;;;;;;;;;;;3.12;60.70;97075.38;4210630;28;5066;-61
2023/01/28 08:14:29;;;;;;;;;;;;;;;3.22;60.65;97078.81;4203822;28;5707;-59
2023/01/28 08:16:32;;;;;;;;;;;;;;;3.30;60.47;97083.34;4210656;28;5721;-60
2023/01/28 08:18:36;;;;;;;;;;;;;;;3.38;60.29;97093.88;4214082;28;5856;-61
2023/01/28 08:20:39;;;;;;;;;;;;;;;3.44;60.03;97090.72;4212344;28;5693;-61
2023/01/28 08:22:42;;;;;;;;;;;;;;;3.50;60.03;97087.53;4211813;28;5710;-61
2023/01/28 08:24:45;;;;;;;;;;;;;;;3.59;59.76;97095.50;4214604;28;5689;-62
2023/01/28 08:26:48;;;;;;;;;;;;;;;3.62;59.76;97096.03;4214117;28;5686;-61
2023/01/28 08:28:51;;;;;;;;;;;;;;;3.63;59.37;97105.53;4213092;28;5694;-60
2023/01/28 08:30:54;;;;;;;;;;;;;;;3.65;59.39;97093.16;4210159;28;5686;-62
2023/01/28 08:32:57;;;;;;;;;;;;;;;3.70;59.53;97090.91;4206581;28;5788;-61
2023/01/28 08:35:02;;;;;;;;;;;;;;;3.78;59.50;97098.88;4198484;28;5809;-61
2023/01/28 08:37:05;;;;;;;;;;;;;;;3.80;59.04;97107.41;4204683;28;5848;-63
2023/01/28 08:39:08;;;;;;;;;;;;;;;3.79;58.93;97110.16;4226122;28;5684;-61
2023/01/28 08:41:10;;;;;;;;;;;;;;;3.79;58.76;97116.22;4212460;28;6379;-63
2023/01/28 08:43:13;;;;;;;;;;;;;;;3.83;58.92;97116.75;4211713;28;5690;-62
2023/01/28 08:45:17;;;;;;;;;;;;;;;3.84;58.85;97102.69;4208090;28;5873;-62
2023/01/28 08:47:19;;;;;;;;;;;;;;;3.88;58.34;97109.31;4212580;28;5714;-60
2023/01/28 08:49:22;;;;;;;;;;;;;;;3.86;58.53;97108.63;4210171;28;5685;-61
2023/01/28 08:51:26;;;;;;;;;;;;;;;3.85;58.30;97119.22;4211993;28;6367;-61
2023/01/28 08:53:29;;;;;;;;;;;;;;;3.85;58.14;97109.59;4212619;28;5715;-60
2023/01/28 08:55:33;;;;;;;;;;;;;;;3.83;58.32;97106.28;4212459;28;5694;-61
2023/01/28 08:57:36;;;;;;;;;;;;;;;3.90;58.26;97117.81;4212357;28;5678;-60
2023/01/28 08:59:43;;;;;;;;;;;;;;;3.96;58.24;97111.19;4212789;28;5730;-61
2023/01/28 09:01:46;;;;;;;;;;;;;;;3.98;58.20;97120.56;4208494;28;5754;-60
2023/01/28 09:03:49;;;;;;;;;;;;;;;4.04;58.08;97119.97;4201251;28;6513;-61
2023/01/28 09:05:52;;;;;;;;;;;;;;;4.04;57.65;97113.91;4201072;28;5772;-61
2023/01/28 09:07:56;;;;;;;;;;;;;;;4.02;57.91;97118.47;4198395;28;5777;-61
2023/01/28 09:09:59;;;;;;;;;;;;;;;4.00;57.92;97110.78;4201452;28;5863;-61
2023/01/28 09:12:02;;;;;;;;;;;;;;;4.02;57.94;97102.78;4201080;28;5781;-60
2023/01/28 09:14:04;;;;;;;;;;;;;;;4.01;57.93;97099.34;4200040;28;5691;-61
2023/01/28 09:16:08;;;;;;;;;;;;;;;4.07;57.87;97103.97;4201414;28;5689;-60
2023/01/28 09:18:11;;;;;;;;;;;;;;;4.08;57.72;97103.03;4201048;28;5694;-61
2023/01/28 09:20:14;;;;;;;;;;;;;;;4.07;57.32;97103.16;4201399;28;5788;-61
2023/01/28 09:22:18;;;;;;;;;;;;;;;4.04;57.21;97092.97;4200951;28;5772;-61
2023/01/28 09:24:22;;;;;;;;;;;;;;;4.08;57.33;97099.59;4201180;28;5767;-61
2023/01/28 09:26:25;;;;;;;;;;;;;;;4.09;57.23;97114.31;4201154;28;5753;-61
2023/01/28 09:28:28;;;;;;;;;;;;;;;4.11;57.30;97117.63;4201273;28;5722;-61
2023/01/28 09:30:31;;;;;;;;;;;;;;;4.14;57.52;97104.22;4200965;28;5682;-61
2023/01/28 09:32:37;;;;;;;;;;;;;;;4.19;57.20;97107.25;4201172;28;5761;-61
2023/01/28 09:34:40;;;;;;;;;;;;;;;4.16;57.13;97118.00;4201190;28;5792;-61
2023/01/28 09:36:43;;;;;;;;;;;;;;;4.13;56.96;97123.53;4201180;28;5095;-61
2023/01/28 09:38:46;;;;;;;;;;;;;;;4.06;56.98;97127.66;4201033;28;5801;-60
2023/01/28 09:40:50;;;;;;;;;;;;;;;4.03;57.07;97112.28;4201057;28;5851;-60
2023/01/28 09:43:05;;;;;;;;;;;;;;;4.07;57.03;97124.91;4199077;28;5749;-61
2023/01/28 09:45:15;;;;;;;;;;;;;;;4.09;56.86;97135.25;4191358;28;5694;-61
2023/01/28 09:47:23;;;;;;;;;;;;;;;4.05;56.81;97134.69;4192882;28;5102;-61
2023/01/28 09:49:35;;;;;;;;;;;;;;;4.00;56.78;97142.16;4186449;28;5802;-61
2023/01/28 09:51:41;;;;;;;;;;;;;;;4.03;56.66;97146.28;4192294;28;5860;-61
2023/01/28 09:53:48;;;;;;;;;;;;;;;4.07;56.89;97145.84;4195492;28;5825;-61
2023/01/28 09:55:55;;;;;;;;;;;;;;;4.07;56.63;97161.53;4193322;28;5764;-61
2023/01/28 09:57:58;;;;;;;;;;;;;;;4.11;56.68;97151.63;4197779;28;5694;-61
2023/01/28 10:00:01;;;;;;;;;;;;;;;4.15;56.61;97173.91;4194231;28;5813;-60
2023/01/28 10:02:24;;;;;;;;;;;;;;;4.18;56.65;97164.94;4199496;28;5822;-60
2023/01/28 10:04:44;;;;;;;;;;;;;;;4.23;56.52;97179.25;4192076;28;5709;-61
2023/01/28 10:07:01;;;;;;;;;;;;;;;4.20;56.39;97168.25;4191619;28;5791;-61
2023/01/28 10:09:24;;;;;;;;;;;;;;;4.17;56.11;97173.75;4191592;28;5848;-60
2023/01/28 10:11:40;;;;;;;;;;;;;;;4.14;55.94;97176.66;4193020;28;5817;-60
2023/01/28 10:13:51;;;;;;;;;;;;;;;4.15;56.07;97178.31;4195070;28;5784;-60
2023/01/28 10:16:04;;;;;;;;;;;;;;;4.17;56.13;97192.91;4194381;28;5945;-60
2023/01/28 10:18:10;;;;;;;;;;;;;;;4.20;56.05;97176.94;4196132;28;5810;-60
2023/01/28 10:20:27;;;;;;;;;;;;;;;4.25;56.03;97174.69;4186893;28;5741;-60
2023/01/28 10:22:35;;;;;;;;;;;;;;;4.25;56.21;97184.34;4193227;28;5715;-60
2023/01/28 10:24:44;;;;;;;;;;;;;;;4.34;55.94;97179.06;4189922;28;5796;-60
2023/01/28 10:26:48;;;;;;;;;;;;;;;4.42;55.49;97190.59;4195261;28;5683;-60
2023/01/28 10:28:56;;;;;;;;;;;;;;;4.43;55.85;97181.78;4187410;28;6449;-60
2023/01/28 10:30:58;;;;;;;;;;;;;;;4.43;55.84;97185.25;4193388;28;5167;-60
2023/01/28 10:33:05;;;;;;;;;;;;;;;4.45;55.52;97182.47;4191380;28;6722;-60
2023/01/28 10:35:08;;;;;;;;;;;;;;;4.40;55.49;97172.41;4191234;28;5706;-60
2023/01/28 10:37:14;;;;;;;;;;;;;;;4.47;55.72;97175.28;4191375;28;5639;-60
2023/01/28 10:39:21;;;;;;;;;;;;;;;4.47;55.41;97178.72;4194621;28;5799;-60
2023/01/28 10:41:25;;;;;;;;;;;;;;;4.46;55.54;97171.84;4194083;28;5698;-60
2023/01/28 10:43:33;;;;;;;;;;;;;;;4.48;55.52;97185.63;4188362;28;5719;-60
2023/01/28 10:45:42;;;;;;;;;;;;;;;4.47;55.15;97180.53;4199127;28;5702;-60
2023/01/28 10:47:49;;;;;;;;;;;;;;;4.45;55.31;97180.69;4193455;28;5701;-60
2023/01/28 10:49:56;;;;;;;;;;;;;;;4.48;55.42;97180.38;4197291;28;5698;-59
2023/01/28 10:52:11;;;;;;;;;;;;;;;4.52;55.14;97173.88;4205786;28;5261;-61
2023/01/28 10:54:22;;;;;;;;;;;;;;;4.55;55.21;97185.88;4193571;28;7729;-60
2023/01/28 10:56:28;;;;;;;;;;;;;;;4.60;55.35;97173.97;4195986;28;5407;-60
2023/01/28 10:58:36;;;;;;;;;;;;;;;4.67;54.87;97175.03;4190671;28;6807;-61
2023/01/28 11:00:38;;;;;;;;;;;;;;;4.63;54.80;97173.66;4193317;28;5818;-60
2023/01/28 11:02:42;;;;;;;;;;;;;;;4.67;55.12;97174.22;4189492;28;5789;-59
2023/01/28 11:04:44;;;;;;;;;;;;;;;4.73;54.88;97162.31;4189649;28;5702;-59
2023/01/28 11:06:56;;;;;;;;;;;;;;;4.70;54.77;97168.69;4198583;28;5714;-59
2023/01/28 11:08:59;;;;;;;;;;;;;;;4.67;54.85;97169.81;4199217;28;5651;-60
2023/01/28 11:11:14;;;;;;;;;;;;;;;4.70;54.83;97160.81;4200836;28;5694;-60
2023/01/28 11:13:19;;;;;;;;;;;;;;;4.67;54.89;97166.38;4200856;28;6455;-60
2023/01/28 11:15:23;;;;;;;;;;;;;;;4.63;54.67;97168.44;4201168;28;5925;-59
2023/01/28 11:17:28;;;;;;;;;;;;;;;4.63;54.68;97159.75;4201094;28;5690;-60
2023/01/28 11:19:34;;;;;;;;;;;;;;;4.59;54.54;97167.09;4200952;28;5693;-60
2023/01/28 11:21:37;;;;;;;;;;;;;;;4.57;54.61;97173.44;4200616;28;5741;-60
2023/01/28 11:23:50;;;;;;;;;;;;;;;4.64;54.78;97167.50;4201068;28;5789;-60
2023/01/28 11:26:04;;;;;;;;;;;;;;;4.68;54.66;97163.59;4200681;28;5781;-60
2023/01/28 11:28:17;;;;;;;;;;;;;;;4.66;54.53;97173.41;4184239;28;5778;-58
2023/01/28 11:30:24;;;;;;;;;;;;;;;4.65;54.38;97177.00;4184405;28;5711;-60
2023/01/28 11:32:28;;;;;;;;;;;;;;;4.64;54.37;97172.72;4184123;28;5764;-61
2023/01/28 11:34:35;;;;;;;;;;;;;;;4.67;54.37;97180.28;4184258;28;5719;-61
2023/01/28 11:36:49;;;;;;;;;;;;;;;4.67;54.20;97175.03;4184054;28;5807;-60
2023/01/28 11:38:53;;;;;;;;;;;;;;;4.65;54.42;97169.13;4184338;28;5711;-61
2023/01/28 11:40:59;;;;;;;;;;;;;;;4.67;54.28;97169.81;4184210;28;5749;-60
2023/01/28 11:43:02;;;;;;;;;;;;;;;4.66;53.85;97162.91;4184296;28;5708;-60
2023/01/28 11:45:15;;;;;;;;;;;;;;;4.67;54.17;97179.47;4184162;28;5715;-61
2023/01/28 11:47:35;;;;;;;;;;;;;;;4.67;53.80;97175.03;4184334;28;5723;-60
2023/01/28 11:49:58;;;;;;;;;;;;;;;4.73;54.01;97167.56;4184189;28;5787;-61
2023/01/28 11:52:13;;;;;;;;;;;;;;;4.74;53.90;97164.78;4190115;28;5689;-60
2023/01/28 11:54:32;;;;;;;;;;;;;;;4.76;53.70;97177.75;4188070;28;5817;-60
2023/01/28 11:56:57;;;;;;;;;;;;;;;4.73;53.75;97167.56;4194703;28;5694;-60
2023/01/28 11:59:15;;;;;;;;;;;;;;;4.73;53.75;97178.84;4190617;28;5785;-60
2023/01/28 12:01:25;;;;;;;;;;;;;;;4.75;53.57;97182.16;4189991;28;5842;-60
2023/01/28 12:03:44;;;;;;;;;;;;;;;4.68;53.56;97166.22;4196060;28;5714;-61
2023/01/28 12:05:50;;;;;;;;;;;;;;;4.64;53.58;97162.25;4188559;28;5781;-62
2023/01/28 12:08:01;;;;;;;;;;;;;;;4.64;53.59;97179.72;4195511;28;5797;-58
2023/01/28 12:10:14;;;;;;;;;;;;;;;4.64;53.68;97180.59;4194042;28;5797;-57
2023/01/28 12:12:38;;;;;;;;;;;;;;;4.66;53.64;97186.50;4193157;28;5789;-58
2023/01/28 12:14:59;;;;;;;;;;;;;;;4.67;53.65;97184.69;4199410;28;5209;-59
2023/01/28 12:17:16;;;;;;;;;;;;;;;4.70;53.44;97179.16;4197156;28;8693;-59
2023/01/28 12:19:37;;;;;;;;;;;;;;;4.71;53.56;97178.19;4192583;28;5885;-61
2023/01/28 12:21:53;;;;;;;;;;;;;;;4.68;53.23;97181.94;4194155;28;5869;-58
2023/01/28 12:24:14;;;;;;;;;;;;;;;4.71;53.46;97179.97;4197172;28;5865;-60
2023/01/28 12:26:22;;;;;;;;;;;;;;;4.71;53.03;97169.50;4193427;28;5844;-60
2023/01/28 12:28:35;;;;;;;;;;;;;;;4.68;53.20;97168.81;4190374;28;5780;-60
2023/01/28 12:30:58;;;;;;;;;;;;;;;4.67;53.24;97177.66;4194563;28;5766;-59
2023/01/28 12:33:14;;;;;;;;;;;;;;;4.66;53.27;97172.56;4205710;28;5784;-59
2023/01/28 12:35:32;;;;;;;;;;;;;;;4.64;53.21;97164.88;4200000;28;5911;-62
2023/01/28 12:37:48;;;;;;;;;;;;;;;4.57;53.07;97170.81;4195826;28;5690;-60
2023/01/28 12:40:06;;;;;;;;;;;;;;;4.56;53.23;97164.78;4200036;28;5749;-61
2023/01/28 12:42:14;;;;;;;;;;;;;;;4.59;53.23;97172.31;4201407;28;5782;-60
2023/01/28 12:44:26;;;;;;;;;;;;;;;4.62;53.12;97165.97;4201246;28;5706;-63
2023/01/28 12:46:40;;;;;;;;;;;;;;;4.65;53.16;97163.91;4200523;28;5802;-65
2023/01/28 12:48:47;;;;;;;;;;;;;;;4.70;53.12;97165.25;4201614;28;5818;-61
2023/01/28 12:50:58;;;;;;;;;;;;;;;4.78;53.14;97175.81;4201178;28;5784;-63
2023/01/28 12:53:14;;;;;;;;;;;;;;;4.83;52.92;97173.56;4200150;28;6500;-63
2023/01/28 12:55:20;;;;;;;;;;;;;;;4.82;52.82;97171.91;4195489;28;5682;-63
2023/01/28 12:57:26;;;;;;;;;;;;;;;4.81;52.87;97176.31;4201783;28;5899;-63
2023/01/28 12:59:32;;;;;;;;;;;;;;;4.81;53.00;97185.97;4198327;28;6425;-63
2023/01/28 13:01:40;;;;;;;;;;;;;;;4.79;52.58;97187.94;4197632;28;5781;-63
2023/01/28 13:03:52;;;;;;;;;;;;;;;4.73;52.88;97176.22;4201750;28;5690;-63
2023/01/28 13:06:01;;;;;;;;;;;;;;;4.70;52.58;97202.72;4199018;28;5850;-62
2023/01/28 13:08:13;;;;;;;;;;;;;;;4.65;52.65;97187.47;4200396;28;5698;-61
2023/01/28 13:10:22;;;;;;;;;;;;;;;4.77;52.92;97200.34;4192890;28;5783;-64
2023/01/28 13:12:26;;;;;;;;;;;;;;;4.79;52.71;97193.16;4196231;28;5792;-64
2023/01/28 13:14:31;;;;;;;;;;;;;;;4.84;52.67;97196.16;4201616;28;5784;-62
2023/01/28 13:16:34;;;;;;;;;;;;;;;4.84;52.68;97201.41;4199891;28;5746;-63
2023/01/28 13:18:46;;;;;;;;;;;;;;;4.88;52.59;97213.25;4198549;28;5715;-64
2023/01/28 13:20:51;;;;;;;;;;;;;;;4.83;52.50;97212.84;4192024;28;5707;-64
2023/01/28 13:23:03;;;;;;;;;;;;;;;4.78;52.55;97212.47;4191808;28;5698;-64
2023/01/28 13:25:19;;;;;;;;;;;;;;;4.77;52.42;97211.66;4194989;28;5876;-65
2023/01/28 13:27:24;;;;;;;;;;;;;;;4.78;52.56;97212.47;4199775;28;5730;-67
2023/01/28 13:29:30;;;;;;;;;;;;;;;4.78;52.22;97212.47;4197568;28;5690;-66
2023/01/28 13:31:38;;;;;;;;;;;;;;;4.74;52.36;97211.94;4198671;28;5682;-66
2023/01/28 13:33:42;;;;;;;;;;;;;;;4.79;52.45;97208.88;4195778;28;5711;-65
2023/01/28 13:35:55;;;;;;;;;;;;;;;4.85;52.49;97219.59;4198263;28;5078;-66
2023/01/28 13:37:59;;;;;;;;;;;;;;;4.88;52.24;97216.69;4193111;28;7737;-66
2023/01/28 13:40:23;;;;;;;;;;;;;;;4.83;52.19;97216.28;4195062;28;5773;-66
2023/01/28 13:42:27;;;;;;;;;;;;;;;4.88;52.15;97215.88;4195676;28;5678;-66
2023/01/28 13:44:33;;;;;;;;;;;;;;;4.90;52.21;97233.09;4200298;28;5784;-64
2023/01/28 13:46:37;;;;;;;;;;;;;;;4.95;51.97;97219.53;4199520;28;5690;-64
2023/01/28 13:48:45;;;;;;;;;;;;;;;4.87;51.86;97222.91;4196236;28;5768;-65
2023/01/28 13:50:52;;;;;;;;;;;;;;;4.79;52.06;97229.84;4200000;28;5848;-65
2023/01/28 13:52:59;;;;;;;;;;;;;;;4.75;51.89;97228.47;4192322;28;5690;-65
2023/01/28 13:55:06;;;;;;;;;;;;;;;4.73;51.92;97227.78;4196103;28;6597;-65
2023/01/28 13:57:41;;;;;;;;;;;;;;;4.72;51.99;97228.78;4195329;28;5687;-65
2023/01/28 13:59:57;;;;;;;;;;;;;;;4.73;51.79;97226.00;4186312;28;5694;-65
2023/01/28 14:02:23;;;;;;;;;;;;;;;4.70;51.95;97230.72;4200020;28;5864;-64
2023/01/28 14:04:56;;;;;;;;;;;;;;;4.67;51.66;97222.19;4198544;28;5773;-65
2023/01/28 14:07:33;;;;;;;;;;;;;;;4.72;51.80;97234.00;4188892;28;5785;-65
2023/01/28 14:09:49;;;;;;;;;;;;;;;4.70;51.70;97235.94;4188199;28;5703;-64
2023/01/28 14:12:24;;;;;;;;;;;;;;;4.67;51.70;97243.13;4198008;28;6088;-63
2023/01/28 14:14:55;;;;;;;;;;;;;;;4.64;51.49;97243.44;4189538;28;5114;-64
2023/01/28 14:17:03;;;;;;;;;;;;;;;4.62;51.61;97240.09;4190454;28;5929;-63
2023/01/28 14:19:12;;;;;;;;;;;;;;;4.65;51.58;97245.09;4187808;28;5701;-64
2023/01/28 14:21:18;;;;;;;;;;;;;;;4.68;51.32;97247.41;4196777;28;5797;-64
2023/01/28 14:23:25;;;;;;;;;;;;;;;4.65;51.16;97252.94;4200006;28;5776;-63
2023/01/28 14:25:37;;;;;;;;;;;;;;;4.60;51.34;97247.28;4191134;28;6571;-62
2023/01/28 14:27:44;;;;;;;;;;;;;;;4.56;51.27;97243.31;4190956;28;5698;-63
2023/01/28 14:30:02;;;;;;;;;;;;;;;4.51;51.40;97242.09;4199788;28;5875;-63
2023/01/28 14:32:09;;;;;;;;;;;;;;;4.45;51.14;97247.91;4188043;28;5793;-65
2023/01/28 14:34:22;;;;;;;;;;;;;;;4.52;51.53;97246.34;4195873;28;5826;-63
2023/01/28 14:36:25;;;;;;;;;;;;;;;4.52;51.38;97241.13;4197370;28;5741;-64
2023/01/28 14:38:28;;;;;;;;;;;;;;;4.49;51.24;97239.63;4189720;28;5777;-63
2023/01/28 14:40:32;;;;;;;;;;;;;;;4.52;51.30;97255.03;4191778;28;5917;-64
2023/01/28 14:42:39;;;;;;;;;;;;;;;4.58;51.04;97256.28;4192552;28;6577;-63
2023/01/28 14:44:44;;;;;;;;;;;;;;;4.59;51.17;97250.88;4196719;28;5821;-63
2023/01/28 14:46:58;;;;;;;;;;;;;;;4.54;51.02;97242.66;4196624;28;5075;-63
2023/01/28 14:49:21;;;;;;;;;;;;;;;4.52;51.22;97248.97;4194198;28;7714;-63
2023/01/28 14:51:40;;;;;;;;;;;;;;;4.52;51.24;97249.78;4195553;28;5856;-64
2023/01/28 14:54:07;;;;;;;;;;;;;;;4.56;51.11;97247.75;4193413;28;5682;-63
2023/01/28 14:56:18;;;;;;;;;;;;;;;4.61;51.08;97264.66;4190360;28;5830;-64
2023/01/28 14:58:28;;;;;;;;;;;;;;;4.63;51.19;97265.31;4191642;28;5737;-64
2023/01/28 15:00:32;;;;;;;;;;;;;;;4.61;51.02;97256.78;4193866;28;5713;-63
2023/01/28 15:02:43;;;;;;;;;;;;;;;4.57;50.91;97255.44;4185680;28;5849;-64
2023/01/28 15:04:46;;;;;;;;;;;;;;;4.54;50.82;97263.59;4194721;28;5915;-63
2023/01/28 15:06:50;;;;;;;;;;;;;;;4.49;50.93;97257.94;4186623;28;5719;-63
2023/01/28 15:08:53;;;;;;;;;;;;;;;4.47;51.00;97257.28;4194094;28;5864;-66
2023/01/28 15:10:56;;;;;;;;;;;;;;;4.51;51.07;97263.84;4190228;28;5849;-67
2023/01/28 15:13:05;;;;;;;;;;;;;;;4.56;50.85;97261.66;4197718;28;5686;-66
2023/01/28 15:15:09;;;;;;;;;;;;;;;4.52;50.89;97264.69;4195468;28;5690;-66
2023/01/28 15:17:25;;;;;;;;;;;;;;;4.48;50.90;97269.38;4199721;28;5693;-66
2023/01/28 15:19:31;;;;;;;;;;;;;;;4.47;51.03;97265.13;4195052;28;5781;-67
2023/01/28 15:21:34;;;;;;;;;;;;;;;4.52;50.92;97275.16;4193373;28;5916;-67
2023/01/28 15:23:39;;;;;;;;;;;;;;;4.45;50.87;97261.84;4199649;28;5694;-67
2023/01/28 15:25:42;;;;;;;;;;;;;;;4.48;50.86;97261.53;4195659;28;5872;-67
2023/01/28 15:27:45;;;;;;;;;;;;;;;4.44;50.88;97283.75;4199863;28;5694;-67
2023/01/28 15:29:53;;;;;;;;;;;;;;;4.47;50.99;97280.84;4199850;28;5801;-67
2023/01/28 15:31:56;;;;;;;;;;;;;;;4.44;50.81;97281.13;4199876;28;5773;-67
2023/01/28 15:34:00;;;;;;;;;;;;;;;4.41;50.94;97268.31;4198840;28;5800;-67
2023/01/28 15:36:05;;;;;;;;;;;;;;;4.43;50.96;97276.03;4199450;28;5777;-67
2023/01/28 15:38:08;;;;;;;;;;;;;;;4.39;50.88;97271.06;4199225;28;5864;-67
2023/01/28 15:40:19;;;;;;;;;;;;;;;4.42;50.94;97276.97;4198923;28;5851;-67
2023/01/28 15:42:28;;;;;;;;;;;;;;;4.43;51.02;97284.72;4195680;28;5737;-67
2023/01/28 15:44:33;;;;;;;;;;;;;;;4.41;50.81;97288.41;4196783;28;5701;-67
2023/01/28 15:46:39;;;;;;;;;;;;;;;4.38;50.73;97289.53;4199672;28;5786;-67
2023/01/28 15:48:45;;;;;;;;;;;;;;;4.36;50.82;97281.84;4199364;28;5844;-66
2023/01/28 15:50:48;;;;;;;;;;;;;;;4.30;50.81;97284.19;4198959;28;6577;-68
2023/01/28 15:52:54;;;;;;;;;;;;;;;4.29;50.86;97287.75;4199916;28;5799;-68
2023/01/28 15:54:57;;;;;;;;;;;;;;;4.28;50.94;97294.78;4202094;28;5151;-68
2023/01/28 15:57:09;;;;;;;;;;;;;;;4.29;50.94;97301.69;4199355;28;7150;-68
2023/01/28 15:59:25;;;;;;;;;;;;;;;4.29;50.83;97300.84;4198933;28;5686;-68
2023/01/28 16:01:28;;;;;;;;;;;;;;;4.28;50.67;97307.88;4199004;28;5721;-68
2023/01/28 16:03:32;;;;;;;;;;;;;;;4.28;50.72;97301.81;4199399;28;6392;-67
2023/01/28 16:05:39;;;;;;;;;;;;;;;4.25;50.82;97304.72;4199386;28;6419;-69
2023/01/28 16:07:44;;;;;;;;;;;;;;;4.21;50.80;97312.06;4198626;28;5816;-67
2023/01/28 16:09:53;;;;;;;;;;;;;;;4.22;50.90;97310.25;4199204;28;5794;-67
2023/01/28 16:12:03;;;;;;;;;;;;;;;4.27;50.78;97314.09;4199468;28;5845;-67
2023/01/28 16:14:05;;;;;;;;;;;;;;;4.27;50.56;97323.72;4201045;28;5733;-67
2023/01/28 16:16:09;;;;;;;;;;;;;;;4.23;50.71;97317.97;4201982;28;5682;-67
2023/01/28 16:18:26;;;;;;;;;;;;;;;4.19;50.70;97315.75;4200816;28;5825;-67
2023/01/28 16:20:30;;;;;;;;;;;;;;;4.17;50.50;97322.91;4192244;28;5686;-67
2023/01/28 16:22:35;;;;;;;;;;;;;;;4.17;50.74;97318.50;4200483;28;5785;-67
2023/01/28 16:24:48;;;;;;;;;;;;;;;4.18;50.76;97324.56;4202423;28;5760;-67
2023/01/28 16:27:01;;;;;;;;;;;;;;;4.20;50.60;97317.44;4202491;28;5561;-67
2023/01/28 16:29:13;;;;;;;;;;;;;;;4.26;50.59;97332.56;4201967;28;7694;-67
2023/01/28 16:31:16;;;;;;;;;;;;;;;4.27;50.71;97323.72;4202316;28;5690;-67
2023/01/28 16:33:21;;;;;;;;;;;;;;;4.26;50.46;97333.38;4202228;28;5773;-68
2023/01/28 16:35:27;;;;;;;;;;;;;;;4.22;50.67;97331.19;4202131;28;5757;-67
2023/01/28 16:37:49;;;;;;;;;;;;;;;4.20;50.51;97344.41;4202085;28;5769;-68
2023/01/28 16:39:52;;;;;;;;;;;;;;;4.17;50.63;97338.63;4201992;28;5864;-68
2023/01/28 16:41:55;;;;;;;;;;;;;;;4.25;50.72;97336.13;4202420;28;5871;-68
2023/01/28 16:44:04;;;;;;;;;;;;;;;4.25;50.45;97344.00;4202260;28;5797;-68
2023/01/28 16:46:11;;;;;;;;;;;;;;;4.25;50.48;97346.59;4186126;28;5806;-68
2023/01/28 16:48:14;;;;;;;;;;;;;;;4.22;50.33;97346.91;4202241;28;5702;-69
2023/01/28 16:50:20;;;;;;;;;;;;;;;4.21;50.38;97346.06;4201892;28;5933;-69
2023/01/28 16:52:23;;;;;;;;;;;;;;;4.18;50.38;97358.59;4201894;28;6757;-68
2023/01/28 16:54:26;;;;;;;;;;;;;;;4.14;50.22;97355.44;4202182;28;6366;-69
2023/01/28 16:56:30;;;;;;;;;;;;;;;4.15;50.50;97366.72;4201442;28;5887;-69
2023/01/28 16:58:48;;;;;;;;;;;;;;;4.14;50.50;97370.31;4201925;28;6189;-68
2023/01/28 17:00:53;;;;;;;;;;;;;;;4.17;50.48;97370.03;4201955;28;5773;-69
2023/01/28 17:02:57;;;;;;;;;;;;;;;4.21;50.44;97367.00;4201978;28;5761;-69
2023/01/28 17:05:00;;;;;;;;;;;;;;;4.21;50.42;97377.47;4202167;28;5761;-68
2023/01/28 17:07:03;;;;;;;;;;;;;;;4.19;50.42;97373.31;4201681;28;5857;-65
2023/01/28 17:09:06;;;;;;;;;;;;;;;4.15;50.39;97382.44;4201703;28;5702;-68
2023/01/28 17:11:08;;;;;;;;;;;;;;;4.17;50.41;97380.50;4201520;28;6387;-68
2023/01/28 17:13:11;;;;;;;;;;;;;;;4.17;50.43;97380.50;4200696;28;5698;-68
2023/01/28 17:15:14;;;;;;;;;;;;;;;4.17;50.51;97385.72;4202728;28;5777;-68
2023/01/28 17:17:18;;;;;;;;;;;;;;;4.19;50.52;97382.03;4202683;28;5877;-69
2023/01/28 17:19:21;;;;;;;;;;;;;;;4.22;50.36;97383.53;4202263;28;5767;-69
2023/01/28 17:21:24;;;;;;;;;;;;;;;4.22;50.47;97379.13;4202701;28;5713;-69
2023/01/28 17:23:27;;;;;;;;;;;;;;;4.21;50.47;97385.31;4202004;28;5827;-69
2023/01/28 17:25:29;;;;;;;;;;;;;;;4.20;50.46;97388.09;4202743;28;5682;-69
2023/01/28 17:27:33;;;;;;;;;;;;;;;4.20;50.35;97394.16;4202830;28;5694;-68
2023/01/28 17:29:36;;;;;;;;;;;;;;;4.20;50.38;97396.75;4202587;28;5780;-68
2023/01/28 17:31:39;;;;;;;;;;;;;;;4.18;50.35;97403.06;4202469;28;5789;-68
2023/01/28 17:33:43;;;;;;;;;;;;;;;4.18;50.42;97400.47;4202536;28;6404;-68
2023/01/28 17:35:47;;;;;;;;;;;;;;;4.17;50.52;97388.34;4202193;28;5707;-69
2023/01/28 17:37:52;;;;;;;;;;;;;;;4.20;50.49;97386.28;4202325;28;5705;-68
2023/01/28 17:39:55;;;;;;;;;;;;;;;4.17;50.47;97396.19;4202714;28;5694;-68
2023/01/28 17:41:58;;;;;;;;;;;;;;;4.15;50.29;97392.88;4202015;28;5702;-68
2023/01/28 17:44:03;;;;;;;;;;;;;;;4.16;50.55;97405.00;4202680;28;5789;-68
2023/01/28 17:46:10;;;;;;;;;;;;;;;4.14;50.64;97407.78;4202274;28;5797;-69
2023/01/28 17:48:13;;;;;;;;;;;;;;;4.16;50.50;97399.78;4202219;28;5694;-69
2023/01/28 17:50:17;;;;;;;;;;;;;;;4.15;50.44;97405.97;4201825;28;5702;-69
2023/01/28 17:52:20;;;;;;;;;;;;;;;4.13;50.55;97410.53;4201965;28;5698;-69
2023/01/28 17:54:24;;;;;;;;;;;;;;;4.19;50.42;97409.97;4202241;28;5852;-69
2023/01/28 17:56:29;;;;;;;;;;;;;;;4.22;50.25;97415.75;4202044;28;5793;-69
2023/01/28 17:58:32;;;;;;;;;;;;;;;4.19;50.47;97415.19;4202128;28;5789;-69
2023/01/28 18:00:35;;;;;;;;;;;;;;;4.22;50.52;97407.09;4201923;28;5717;-68
2023/01/28 18:02:38;;;;;;;;;;;;;;;4.22;50.46;97423.63;4202096;28;5705;-70
2023/01/28 18:04:42;;;;;;;;;;;;;;;4.20;50.51;97419.50;4201719;28;5698;-68
2023/01/28 18:06:47;;;;;;;;;;;;;;;4.17;50.63;97422.34;4202054;28;5070;-68
2023/01/28 18:08:50;;;;;;;;;;;;;;;4.16;50.53;97432.00;4201710;28;7702;-66
2023/01/28 18:10:54;;;;;;;;;;;;;;;4.14;50.55;97430.50;4202061;28;5789;-65
2023/01/28 18:12:57;;;;;;;;;;;;;;;4.18;50.70;97444.94;4202079;28;5698;-63
2023/01/28 18:15:00;;;;;;;;;;;;;;;4.19;50.54;97443.97;4201707;28;5841;-67
2023/01/28 18:17:03;;;;;;;;;;;;;;;4.20;50.72;97445.66;4201294;28;5682;-68
2023/01/28 18:19:07;;;;;;;;;;;;;;;4.25;50.52;97452.13;4185483;28;5771;-67
2023/01/28 18:21:20;;;;;;;;;;;;;;;4.25;50.56;97448.69;4201835;28;5698;-66
2023/01/28 18:23:24;;;;;;;;;;;;;;;4.20;50.70;97441.25;4201460;28;5784;-67
2023/01/28 18:25:27;;;;;;;;;;;;;;;4.16;50.76;97439.03;4201326;28;5690;-65
2023/01/28 18:27:30;;;;;;;;;;;;;;;4.17;50.86;97441.50;4201612;28;5694;-67
2023/01/28 18:29:33;;;;;;;;;;;;;;;4.16;50.89;97444.25;4201343;28;5698;-65
2023/01/28 18:31:36;;;;;;;;;;;;;;;4.17;50.92;97446.75;4201767;28;5702;-65
2023/01/28 18:33:38;;;;;;;;;;;;;;;4.22;50.75;97436.69;4201632;28;5678;-66
2023/01/28 18:35:42;;;;;;;;;;;;;;;4.20;50.81;97445.66;4194835;28;5832;-66
2023/01/28 18:37:45;;;;;;;;;;;;;;;4.18;50.85;97444.94;4201248;28;5810;-65
2023/01/28 18:39:49;;;;;;;;;;;;;;;4.24;50.82;97433.94;4201362;28;6610;-64
2023/01/28 18:41:53;;;;;;;;;;;;;;;4.28;50.78;97441.38;4200976;28;5797;-65
2023/01/28 18:43:56;;;;;;;;;;;;;;;4.20;50.76;97438.63;4201446;28;5868;-66
2023/01/28 18:45:59;;;;;;;;;;;;;;;4.23;50.87;97442.75;4201250;28;5753;-64
2023/01/28 18:48:02;;;;;;;;;;;;;;;4.22;50.80;97446.34;4201294;28;5694;-65
2023/01/28 18:50:06;;;;;;;;;;;;;;;4.18;50.93;97442.31;4201165;28;5705;-65
2023/01/28 18:52:09;;;;;;;;;;;;;;;4.16;50.93;97439.03;4200630;28;5694;-65
2023/01/28 18:54:12;;;;;;;;;;;;;;;4.13;51.10;97439.31;4200222;28;5777;-65
2023/01/28 18:56:17;;;;;;;;;;;;;;;4.19;50.90;97452.69;4201078;28;5694;-65
2023/01/28 18:58:20;;;;;;;;;;;;;;;4.25;50.86;97438.22;4200294;28;5892;-65
2023/01/28 19:00:23;;;;;;;;;;;;;;;4.26;50.72;97445.09;4200963;28;5816;-66
2023/01/28 19:02:26;;;;;;;;;;;;;;;4.20;50.93;97443.88;4201412;28;6384;-65
2023/01/28 19:04:29;;;;;;;;;;;;;;;4.23;50.95;97437.53;4201256;28;5694;-65
2023/01/28 19:06:32;;;;;;;;;;;;;;;4.27;50.93;97433.66;4200971;28;5827;-66
2023/01/28 19:08:36;;;;;;;;;;;;;;;4.22;50.92;97443.72;4200349;28;5801;-67
2023/01/28 19:10:38;;;;;;;;;;;;;;;4.16;50.94;97444.25;4197478;28;5675;-66
2023/01/28 19:12:43;;;;;;;;;;;;;;;4.15;51.00;97437.38;4200970;28;5686;-66
2023/01/28 19:14:46;;;;;;;;;;;;;;;4.19;51.01;97462.31;4200904;28;5742;-65
2023/01/28 19:16:49;;;;;;;;;;;;;;;4.15;50.92;97440.00;4200870;28;5693;-66
2023/01/28 19:18:53;;;;;;;;;;;;;;;4.11;51.08;97449.09;4200800;28;5813;-63
2023/01/28 19:20:56;;;;;;;;;;;;;;;4.12;51.09;97458.59;4200555;28;5829;-63
2023/01/28 19:22:58;;;;;;;;;;;;;;;4.15;51.05;97455.69;4200504;28;5705;-68